SNIK weather

Itamarandiba Airport
Itamarandiba, Minas Gerais, Brazil

Public forecast

Using degrees Celsius for public forecast. Weather courtesy of forecast.io.

METAR (pilot weather report)

Closest report is M├írio Ribeiro Airport, 88.3 nm (163.5 km) NW. Retrieved 2019/09/16 03:00 UTC (25 minutes ago):

SBMK 160300Z 09003KT CAVOK 21/10 Q1019

TAF (pilot weather forecast)

Forecast is more than 12 hours old.

Closest forecast is Serro Airport, 56.0 nm (103.8 km) SW. Retrieved 2009/11/03 09:30 UTC (10 years ago):

TAF SNSO 030930Z 0312/0418 06010G20KT CAVOK TEMPO 0315/0319 5000 HZ